createdAt,value
2023-01-28T00:02:28.328Z,98096.91
2023-01-28T00:04:56.744Z,98098.63
2023-01-28T00:07:26.495Z,98101.13
2023-01-28T00:09:54.972Z,98094.34
2023-01-28T00:12:23.705Z,98093.50
2023-01-28T00:14:52.091Z,98093.50
2023-01-28T00:17:20.593Z,98096.88
2023-01-28T00:19:49.040Z,98094.34
2023-01-28T00:22:17.601Z,98095.22
2023-01-28T00:24:47.425Z,98099.44
2023-01-28T00:27:15.931Z,98101.97
2023-01-28T00:29:44.348Z,98099.41
2023-01-28T00:32:14.533Z,98103.63
2023-01-28T00:34:42.978Z,98099.44
2023-01-28T00:37:11.379Z,98098.56
2023-01-28T00:39:39.885Z,98101.09
2023-01-28T00:42:10.059Z,98100.25
2023-01-28T00:44:38.561Z,98094.38
2023-01-28T00:47:07.233Z,98093.50
2023-01-28T00:49:35.725Z,98089.25
2023-01-28T00:52:04.521Z,98088.41
2023-01-28T00:54:33.242Z,98089.25
2023-01-28T00:57:01.957Z,98085.91
2023-01-28T00:59:31.728Z,98086.78
2023-01-28T01:02:12.279Z,98091.00
2023-01-28T01:04:41.699Z,98096.91
2023-01-28T01:07:10.202Z,98094.41
2023-01-28T01:09:38.640Z,98085.13
2023-01-28T01:12:08.296Z,98081.72
2023-01-28T01:14:38.137Z,98091.88
2023-01-28T01:17:06.600Z,98085.94
2023-01-28T01:19:35.066Z,98096.94
2023-01-28T01:22:03.575Z,98091.88
2023-01-28T01:24:34.035Z,98096.94
2023-01-28T01:27:02.548Z,98098.63
2023-01-28T01:29:31.319Z,98093.53
2023-01-28T01:32:01.223Z,98104.53
2023-01-28T01:34:29.690Z,98107.91
2023-01-28T01:36:58.200Z,98108.78
2023-01-28T01:39:27.470Z,98113.84
2023-01-28T01:41:55.893Z,98112.13
2023-01-28T01:45:04.958Z,98114.63
2023-01-28T01:47:40.381Z,98112.13
2023-01-28T01:50:14.671Z,98116.34
2023-01-28T01:52:44.260Z,98130.66
2023-01-28T01:55:17.542Z,98120.56
2023-01-28T01:57:48.974Z,98123.94
2023-01-28T02:00:19.147Z,98127.31
2023-01-28T02:02:52.850Z,98131.53
2023-01-28T02:05:23.350Z,98133.22
2023-01-28T02:08:15.986Z,98127.34
2023-01-28T02:10:47.506Z,98121.41
2023-01-28T02:13:17.511Z,98127.31
2023-01-28T02:15:47.251Z,98122.28
2023-01-28T02:18:17.625Z,98130.69
2023-01-28T02:21:04.293Z,98129.03
2023-01-28T02:23:47.651Z,98128.16
2023-01-28T02:26:48.197Z,98128.97
2023-01-28T02:29:26.645Z,98134.09
2023-01-28T02:32:04.613Z,98135.75
2023-01-28T02:34:39.449Z,98127.34
2023-01-28T02:37:13.350Z,98130.69
2023-01-28T02:39:48.926Z,98132.38
2023-01-28T02:42:21.034Z,98127.31
2023-01-28T02:44:50.896Z,98122.25
2023-01-28T02:47:37.452Z,98118.84
2023-01-28T02:50:10.750Z,98123.09
2023-01-28T02:53:19.499Z,98133.25
2023-01-28T02:55:55.330Z,98126.47
2023-01-28T02:58:34.428Z,98119.72
2023-01-28T03:01:14.483Z,98131.53
2023-01-28T03:03:55.253Z,98117.19
2023-01-28T03:06:28.141Z,98123.94
2023-01-28T03:09:17.838Z,98123.94
2023-01-28T03:12:08.667Z,98125.59
2023-01-28T03:14:56.178Z,98128.13
2023-01-28T03:17:50.775Z,98126.44
2023-01-28T03:20:38.512Z,98129.78
2023-01-28T03:23:30.045Z,98135.72
2023-01-28T03:26:19.878Z,98128.94
2023-01-28T03:29:09.174Z,98136.53
2023-01-28T03:31:56.588Z,98138.25
2023-01-28T03:34:44.284Z,98107.88
2023-01-28T03:37:15.110Z,98132.31
2023-01-28T03:39:48.297Z,98128.09
2023-01-28T03:42:18.582Z,98133.16
2023-01-28T03:45:05.316Z,98135.69
2023-01-28T03:47:35.097Z,98142.41
2023-01-28T03:50:08.714Z,98140.72
2023-01-28T03:52:46.825Z,98141.56
2023-01-28T03:55:29.447Z,98145.78
2023-01-28T03:57:57.874Z,98143.25
2023-01-28T04:00:26.339Z,98144.97
2023-01-28T04:02:56.682Z,98142.47
2023-01-28T04:05:27.409Z,98150.88
2023-01-28T04:07:56.509Z,98146.66
2023-01-28T04:10:57.333Z,98145.81
2023-01-28T04:13:30.265Z,98148.31
2023-01-28T04:16:03.355Z,98137.34
2023-01-28T04:18:34.990Z,98143.28
2023-01-28T04:21:06.692Z,98144.13
2023-01-28T04:23:36.094Z,98135.66
2023-01-28T04:26:05.497Z,98150.06
2023-01-28T04:28:34.399Z,98152.53
2023-01-28T04:31:03.353Z,98164.38
2023-01-28T04:33:44.585Z,98172.00
2023-01-28T04:36:28.414Z,98167.75
2023-01-28T04:39:07.107Z,98172.00
2023-01-28T04:41:47.589Z,98171.97
2023-01-28T04:44:22.393Z,98174.50
2023-01-28T04:47:13.730Z,98177.88
2023-01-28T04:50:00.958Z,98187.16
2023-01-28T04:53:09.649Z,98183.81
2023-01-28T04:55:52.457Z,98188.00
2023-01-28T04:58:22.408Z,98187.16
2023-01-28T05:00:56.369Z,98185.50
2023-01-28T05:03:25.332Z,98193.94
2023-01-28T05:05:54.267Z,98188.03
2023-01-28T05:08:30.028Z,98184.63
2023-01-28T05:10:58.498Z,98190.56
2023-01-28T05:13:27.129Z,98185.50
2023-01-28T05:15:55.561Z,98192.25
2023-01-28T05:18:24.006Z,98192.22
2023-01-28T05:21:04.866Z,98193.09
2023-01-28T05:23:36.229Z,98187.13
2023-01-28T05:26:05.073Z,98199.84
2023-01-28T05:28:34.443Z,98189.66
2023-01-28T05:31:04.515Z,98192.22
2023-01-28T05:33:33.433Z,98193.03
2023-01-28T05:36:02.555Z,98193.06
2023-01-28T05:38:31.296Z,98191.34
2023-01-28T05:41:01.155Z,98193.91
2023-01-28T05:43:29.728Z,98202.34
2023-01-28T05:46:10.952Z,98194.75
2023-01-28T05:48:58.173Z,98197.25
2023-01-28T05:51:45.202Z,98186.28
2023-01-28T05:54:17.334Z,98187.94
2023-01-28T05:56:47.491Z,98183.72
2023-01-28T05:59:16.129Z,98193.03
2023-01-28T06:01:46.130Z,98186.25
2023-01-28T06:04:14.684Z,98182.03
2023-01-28T06:06:43.214Z,98200.63
2023-01-28T06:09:11.895Z,98197.25
2023-01-28T06:11:40.331Z,98201.50
2023-01-28T06:14:10.486Z,98205.69
2023-01-28T06:16:57.301Z,98207.38
2023-01-28T06:19:25.733Z,98212.47
2023-01-28T06:21:54.220Z,98214.97
2023-01-28T06:24:22.807Z,98217.50
2023-01-28T06:26:51.605Z,98229.34
2023-01-28T06:29:21.515Z,98225.13
2023-01-28T06:31:51.145Z,98231.88
2023-01-28T06:34:19.815Z,98228.50
2023-01-28T06:36:48.260Z,98241.16
2023-01-28T06:39:16.749Z,98242.84
2023-01-28T06:41:45.254Z,98236.06
2023-01-28T06:44:13.693Z,98242.81
2023-01-28T06:46:43.666Z,98255.50
2023-01-28T06:49:12.288Z,98257.22
2023-01-28T06:51:40.752Z,98251.28
2023-01-28T06:54:09.337Z,98258.88
2023-01-28T06:56:37.768Z,98262.28
2023-01-28T06:59:06.503Z,98252.13
2023-01-28T07:01:35.222Z,98263.97
2023-01-28T07:04:08.732Z,98263.13
2023-01-28T07:06:39.937Z,98270.72
2023-01-28T07:09:08.367Z,98268.16
2023-01-28T07:11:36.752Z,98271.56
2023-01-28T07:14:05.312Z,98269.88
2023-01-28T07:16:33.873Z,98278.31
2023-01-28T07:19:02.481Z,98271.56
2023-01-28T07:21:32.355Z,98274.09
2023-01-28T07:24:00.927Z,98280.84
2023-01-28T07:26:29.398Z,98285.91
2023-01-28T07:28:57.849Z,98279.13
2023-01-28T07:31:26.471Z,98280.81
2023-01-28T07:33:54.952Z,98282.50
2023-01-28T07:36:23.533Z,98289.25
2023-01-28T07:38:53.341Z,98287.56
2023-01-28T07:41:24.067Z,98289.25
2023-01-28T07:43:52.538Z,98284.16
2023-01-28T07:46:21.718Z,98285.84
2023-01-28T07:48:50.147Z,98297.69
2023-01-28T07:51:18.608Z,98301.91
2023-01-28T07:53:47.091Z,98295.13
2023-01-28T07:56:16.884Z,98295.13
2023-01-28T07:58:45.318Z,98309.50
2023-01-28T08:01:14.880Z,98300.19
2023-01-28T08:03:43.372Z,98317.06
2023-01-28T08:06:12.601Z,98310.31
2023-01-28T08:08:41.038Z,98304.41
2023-01-28T08:11:10.740Z,98308.59
2023-01-28T08:13:40.605Z,98313.66
2023-01-28T08:16:09.083Z,98312.00
2023-01-28T08:18:37.671Z,98317.91
2023-01-28T08:21:06.214Z,98328.03
2023-01-28T08:23:35.543Z,98328.00
2023-01-28T08:26:04.047Z,98325.47
2023-01-28T08:28:32.561Z,98328.84
2023-01-28T08:31:02.990Z,98322.03
2023-01-28T08:33:31.689Z,98328.78
2023-01-28T08:36:04.135Z,98329.59
2023-01-28T08:38:32.589Z,98336.38
2023-01-28T08:41:01.231Z,98323.69
2023-01-28T08:43:29.782Z,98322.00
2023-01-28T08:45:58.334Z,98324.53
2023-01-28T08:48:28.375Z,98326.19
2023-01-28T08:50:59.554Z,98328.69
2023-01-28T08:53:28.137Z,98330.34
2023-01-28T08:55:56.688Z,98326.94
2023-01-28T08:58:25.337Z,98338.78
2023-01-28T09:00:53.812Z,98340.50
2023-01-28T09:03:22.326Z,98345.56
2023-01-28T09:05:52.453Z,98348.09
2023-01-28T09:08:20.855Z,98347.22
2023-01-28T09:10:49.375Z,98348.03
2023-01-28T09:13:17.966Z,98348.81
2023-01-28T09:15:46.564Z,98340.44
2023-01-28T09:18:15.048Z,98354.00
2023-01-28T09:20:43.533Z,98352.31
2023-01-28T09:23:13.748Z,98355.66
2023-01-28T09:25:42.498Z,98359.94
2023-01-28T09:28:11.003Z,98357.34
2023-01-28T09:30:39.788Z,98350.59
2023-01-28T09:33:08.858Z,98352.28
2023-01-28T09:35:37.700Z,98361.53
2023-01-28T09:38:06.435Z,98360.72
2023-01-28T09:40:39.385Z,98364.13
2023-01-28T09:43:31.890Z,98364.13
2023-01-28T09:46:03.770Z,98368.38
2023-01-28T09:48:38.081Z,98364.94
2023-01-28T09:51:11.294Z,98375.06
2023-01-28T09:53:44.768Z,98378.50
2023-01-28T09:56:20.772Z,98380.22
2023-01-28T09:58:49.291Z,98375.94
2023-01-28T10:01:33.062Z,98379.25
2023-01-28T10:04:13.587Z,98378.34
2023-01-28T10:06:51.317Z,98378.28
2023-01-28T10:09:35.147Z,98384.16
2023-01-28T10:12:18.382Z,98379.03
2023-01-28T10:15:00.209Z,98376.47
2023-01-28T10:17:33.241Z,98370.53
2023-01-28T10:20:07.126Z,98367.09
2023-01-28T10:22:40.514Z,98368.75
2023-01-28T10:25:19.060Z,98372.16
2023-01-28T10:27:50.644Z,98367.09
2023-01-28T10:30:21.763Z,98356.03
2023-01-28T10:32:54.320Z,98362.75
2023-01-28T10:35:24.136Z,98366.16
2023-01-28T10:38:06.413Z,98353.41
2023-01-28T10:40:35.748Z,98357.59
2023-01-28T10:43:05.657Z,98353.41
2023-01-28T10:45:41.558Z,98345.78
2023-01-28T10:48:18.541Z,98352.41
2023-01-28T10:50:51.496Z,98364.31
2023-01-28T10:53:20.226Z,98351.44
2023-01-28T10:55:52.194Z,98361.63
2023-01-28T10:58:25.003Z,98354.09
2023-01-28T11:00:54.662Z,98362.72
2023-01-28T11:03:27.420Z,98354.22
2023-01-28T11:05:57.699Z,98350.06
2023-01-28T11:08:27.112Z,98350.09
2023-01-28T11:10:56.639Z,98352.66
2023-01-28T11:13:28.526Z,98357.75
2023-01-28T11:16:02.073Z,98361.09
2023-01-28T11:18:33.894Z,98355.25
2023-01-28T11:21:05.171Z,98356.22
2023-01-28T11:23:36.176Z,98371.34
2023-01-28T11:26:07.640Z,98362.00
2023-01-28T11:28:42.634Z,98357.63
2023-01-28T11:31:15.339Z,98355.22
2023-01-28T11:33:47.106Z,98358.75
2023-01-28T11:36:16.980Z,98369.63
2023-01-28T11:38:50.711Z,98381.56
2023-01-28T11:41:20.397Z,98376.53
2023-01-28T11:43:55.196Z,98370.56
2023-01-28T11:46:40.068Z,98370.56
2023-01-28T11:49:17.204Z,98368.00
2023-01-28T11:51:53.366Z,98372.19
2023-01-28T11:54:33.922Z,98365.34
2023-01-28T11:57:15.024Z,98367.00
2023-01-28T11:59:57.579Z,98360.25
2023-01-28T12:02:47.727Z,98372.25
2023-01-28T12:05:40.053Z,98360.38
2023-01-28T12:08:13.595Z,98362.09
2023-01-28T12:10:49.786Z,98362.09
2023-01-28T12:13:36.610Z,98351.81
2023-01-28T12:16:19.046Z,98351.66
2023-01-28T12:19:14.098Z,98347.25
2023-01-28T12:22:00.589Z,98355.69
2023-01-28T12:24:43.240Z,98347.19
2023-01-28T12:27:27.995Z,98348.00
2023-01-28T12:30:05.451Z,98347.19
2023-01-28T12:32:50.249Z,98354.88
2023-01-28T12:35:51.090Z,98344.50
2023-01-28T12:38:29.117Z,98355.41
2023-01-28T12:41:04.007Z,98349.81
2023-01-28T12:43:50.462Z,98338.47
2023-01-28T12:46:28.517Z,98334.88
2023-01-28T12:49:04.993Z,98336.63
2023-01-28T12:51:37.036Z,98334.19
2023-01-28T12:54:13.275Z,98337.03
2023-01-28T12:56:46.025Z,98336.06
2023-01-28T12:59:18.561Z,98331.25
2023-01-28T13:01:52.240Z,98333.06
2023-01-28T13:04:31.628Z,98335.13
2023-01-28T13:07:05.393Z,98339.50
2023-01-28T13:09:37.950Z,98337.53
2023-01-28T13:12:07.463Z,98338.84
2023-01-28T13:14:36.649Z,98352.56
2023-01-28T13:17:11.998Z,98346.81
2023-01-28T13:19:43.294Z,98341.88
2023-01-28T13:22:14.679Z,98350.91
2023-01-28T13:24:43.196Z,98350.25
2023-01-28T13:27:16.203Z,98348.66
2023-01-28T13:29:49.865Z,98349.06
2023-01-28T13:32:30.984Z,98355.16
2023-01-28T13:35:03.352Z,98361.72
2023-01-28T13:37:35.040Z,98360.88
2023-01-28T13:40:09.544Z,98350.06
2023-01-28T13:42:38.020Z,98355.91
2023-01-28T13:45:25.183Z,98346.97
2023-01-28T13:47:59.357Z,98347.03
2023-01-28T13:50:41.423Z,98354.59
2023-01-28T13:53:23.411Z,98361.19
2023-01-28T13:55:56.426Z,98352.94
2023-01-28T13:59:08.272Z,98352.91
2023-01-28T14:02:03.369Z,98353.78
2023-01-28T14:04:51.783Z,98356.13
2023-01-28T14:07:37.804Z,98349.66
2023-01-28T14:10:18.999Z,98362.50
2023-01-28T14:13:13.960Z,98365.09
2023-01-28T14:15:56.180Z,98370.16
2023-01-28T14:18:28.734Z,98369.47
2023-01-28T14:21:02.342Z,98377.97
2023-01-28T14:23:32.621Z,98382.19
2023-01-28T14:26:06.789Z,98393.16
2023-01-28T14:28:48.134Z,98393.19
2023-01-28T14:31:22.690Z,98394.00
2023-01-28T14:33:51.649Z,98389.94
2023-01-28T14:36:20.247Z,98402.56
2023-01-28T14:38:50.227Z,98394.19
2023-01-28T14:41:25.951Z,98395.00
2023-01-28T14:43:56.417Z,98399.25
2023-01-28T14:46:33.961Z,98406.06
2023-01-28T14:49:17.173Z,98402.75
2023-01-28T14:51:55.715Z,98408.66
2023-01-28T14:54:48.493Z,98409.47
2023-01-28T14:57:29.630Z,98415.38
2023-01-28T15:00:01.052Z,98415.44
2023-01-28T15:02:31.354Z,98417.94
2023-01-28T15:05:08.813Z,98420.44
2023-01-28T15:07:37.314Z,98422.19
2023-01-28T15:10:15.339Z,98428.13
2023-01-28T15:12:49.689Z,98427.28
2023-01-28T15:15:25.415Z,98428.13
2023-01-28T15:17:54.798Z,98434.88
2023-01-28T15:20:25.830Z,98434.84
2023-01-28T15:22:54.873Z,98428.09
2023-01-28T15:25:29.106Z,98431.50
2023-01-28T15:28:01.838Z,98440.06
2023-01-28T15:30:32.106Z,98437.59
2023-01-28T15:33:05.060Z,98444.41
2023-01-28T15:35:36.515Z,98443.53
2023-01-28T15:38:05.795Z,98446.97
2023-01-28T15:40:43.165Z,98453.72
2023-01-28T15:43:19.694Z,98450.38
2023-01-28T15:45:49.566Z,98454.59
2023-01-28T15:48:18.839Z,98463.06
2023-01-28T15:50:47.940Z,98463.00
2023-01-28T15:53:16.504Z,98473.19
2023-01-28T15:55:46.560Z,98469.81
2023-01-28T15:58:28.001Z,98469.81
2023-01-28T16:01:16.496Z,98473.19
2023-01-28T16:03:47.388Z,98479.97
2023-01-28T16:06:18.634Z,98483.38
2023-01-28T16:08:52.689Z,98475.78
2023-01-28T16:11:29.319Z,98474.06
2023-01-28T16:13:58.503Z,98484.22
2023-01-28T16:16:30.745Z,98480.00
2023-01-28T16:19:00.020Z,98481.69
2023-01-28T16:21:32.023Z,98485.94
2023-01-28T16:24:02.687Z,98484.25
2023-01-28T16:26:35.173Z,98482.53
2023-01-28T16:29:14.878Z,98498.59
2023-01-28T16:31:44.139Z,98492.69
2023-01-28T16:34:12.843Z,98501.13
2023-01-28T16:36:41.391Z,98499.50
2023-01-28T16:39:10.467Z,98508.78
2023-01-28T16:41:43.289Z,98507.94
2023-01-28T16:44:14.461Z,98504.56
2023-01-28T16:46:43.373Z,98499.50
2023-01-28T16:49:12.105Z,98507.13
2023-01-28T16:51:43.739Z,98498.66
2023-01-28T16:54:15.499Z,98503.75
2023-01-28T16:56:47.620Z,98501.19
2023-01-28T16:59:17.274Z,98509.63
2023-01-28T17:01:46.109Z,98507.09
2023-01-28T17:04:15.218Z,98510.47
2023-01-28T17:06:45.167Z,98511.31
2023-01-28T17:09:15.184Z,98514.75
2023-01-28T17:11:44.971Z,98514.75
2023-01-28T17:14:13.492Z,98511.34
2023-01-28T17:16:42.090Z,98518.94
2023-01-28T17:19:10.708Z,98508.78
2023-01-28T17:21:39.276Z,98518.94
2023-01-28T17:24:08.534Z,98509.66
2023-01-28T17:26:38.123Z,98516.41
2023-01-28T17:29:08.875Z,98510.47
2023-01-28T17:31:38.302Z,98509.69
2023-01-28T17:34:08.121Z,98508.84
2023-01-28T17:36:36.659Z,98509.69
2023-01-28T17:39:05.960Z,98513.09
2023-01-28T17:41:34.653Z,98513.91
2023-01-28T17:44:04.504Z,98515.59
2023-01-28T17:46:34.366Z,98508.84
2023-01-28T17:49:03.827Z,98520.72
2023-01-28T17:51:32.437Z,98527.47
2023-01-28T17:54:01.017Z,98535.91
2023-01-28T17:56:31.132Z,98531.66
2023-01-28T17:59:02.160Z,98532.50
2023-01-28T18:01:32.018Z,98533.41
2023-01-28T18:04:02.149Z,98530.84
2023-01-28T18:06:32.116Z,98532.56
2023-01-28T18:09:00.919Z,98530.00
2023-01-28T18:11:29.845Z,98529.16
2023-01-28T18:13:58.550Z,98533.38
2023-01-28T18:16:27.151Z,98541.88
2023-01-28T18:18:55.649Z,98541.03
2023-01-28T18:21:46.433Z,98547.78
2023-01-28T18:24:20.543Z,98531.72
2023-01-28T18:26:49.090Z,98544.41
2023-01-28T18:29:20.928Z,98546.97
2023-01-28T18:31:49.874Z,98540.16
2023-01-28T18:34:19.032Z,98544.41
2023-01-28T18:36:49.654Z,98541.81
2023-01-28T18:39:19.554Z,98546.09
2023-01-28T18:41:48.037Z,98541.88
2023-01-28T18:44:17.098Z,98541.00
2023-01-28T18:46:45.619Z,98546.13
2023-01-28T18:49:14.662Z,98538.50
2023-01-28T18:51:43.760Z,98531.72
2023-01-28T18:54:15.649Z,98533.44
2023-01-28T18:56:44.882Z,98531.75
2023-01-28T18:59:15.653Z,98525.81
2023-01-28T19:01:44.777Z,98529.19
2023-01-28T19:04:14.168Z,98531.75
2023-01-28T19:06:43.318Z,98547.00
2023-01-28T19:09:16.401Z,98552.03
2023-01-28T19:11:46.023Z,98550.38
2023-01-28T19:14:15.745Z,98538.53
2023-01-28T19:16:45.437Z,98545.28
2023-01-28T19:19:14.142Z,98551.22
2023-01-28T19:21:42.733Z,98557.13
2023-01-28T19:24:14.878Z,98563.91
2023-01-28T19:26:44.640Z,98561.38
2023-01-28T19:29:16.069Z,98564.75
2023-01-28T19:31:48.740Z,98570.66
2023-01-28T19:34:17.943Z,98566.44
2023-01-28T19:36:46.902Z,98575.75
2023-01-28T19:39:16.819Z,98575.75
2023-01-28T19:41:45.642Z,98568.16
2023-01-28T19:44:14.419Z,98564.78
2023-01-28T19:46:43.052Z,98563.91
2023-01-28T19:49:12.652Z,98574.06
2023-01-28T19:51:41.165Z,98579.16
2023-01-28T19:54:09.674Z,98579.16
2023-01-28T19:56:39.593Z,98577.44
2023-01-28T19:59:08.431Z,98576.59
2023-01-28T20:01:37.026Z,98586.75
2023-01-28T20:04:05.772Z,98577.44
2023-01-28T20:06:36.653Z,98586.75
2023-01-28T20:09:07.598Z,98587.63
2023-01-28T20:11:37.095Z,98579.16
2023-01-28T20:14:07.046Z,98581.69
2023-01-28T20:16:36.324Z,98584.22
2023-01-28T20:19:06.715Z,98591.84
2023-01-28T20:21:36.561Z,98592.69
2023-01-28T20:24:06.575Z,98593.53
2023-01-28T20:26:37.333Z,98588.47
2023-01-28T20:29:09.428Z,98591.00
2023-01-28T20:31:42.511Z,98600.28
2023-01-28T20:34:14.673Z,98590.16
2023-01-28T20:36:43.419Z,98587.59
2023-01-28T20:39:12.269Z,98596.06
2023-01-28T20:41:40.752Z,98601.13
2023-01-28T20:44:10.715Z,98603.69
2023-01-28T20:46:39.219Z,98603.69
2023-01-28T20:49:08.012Z,98602.81
2023-01-28T20:51:38.234Z,98602.81
2023-01-28T20:54:07.294Z,98616.38
2023-01-28T20:56:35.825Z,98614.66
2023-01-28T20:59:06.836Z,98619.75
2023-01-28T21:01:37.225Z,98618.06
2023-01-28T21:04:07.596Z,98624.81
2023-01-28T21:06:37.668Z,98624.81
2023-01-28T21:09:06.614Z,98634.97
2023-01-28T21:11:35.697Z,98641.72
2023-01-28T21:14:04.599Z,98652.72
2023-01-28T21:16:33.130Z,98648.50
2023-01-28T21:19:02.916Z,98642.56
2023-01-28T21:21:31.322Z,98644.28
2023-01-28T21:24:00.397Z,98648.47
2023-01-28T21:26:29.320Z,98655.25
2023-01-28T21:28:58.226Z,98649.34
2023-01-28T21:31:28.057Z,98652.72
2023-01-28T21:33:57.709Z,98647.66
2023-01-28T21:36:28.406Z,98644.28
2023-01-28T21:38:59.291Z,98629.91
2023-01-28T21:41:28.164Z,98638.34
2023-01-28T21:43:57.655Z,98645.13
2023-01-28T21:46:28.102Z,98630.72
2023-01-28T21:48:57.308Z,98636.66
2023-01-28T21:51:36.372Z,98634.97
2023-01-28T21:54:06.636Z,98633.25
2023-01-28T21:56:35.184Z,98626.53
2023-01-28T21:59:21.548Z,98629.03
2023-01-28T22:01:50.373Z,98623.97
2023-01-28T22:04:19.036Z,98626.53
2023-01-28T22:06:49.340Z,98621.44
2023-01-28T22:09:18.053Z,98627.34
2023-01-28T22:11:47.030Z,98631.56
2023-01-28T22:14:16.082Z,98630.72
2023-01-28T22:16:44.851Z,98636.66
2023-01-28T22:19:14.749Z,98638.34
2023-01-28T22:21:45.885Z,98643.41
2023-01-28T22:24:17.577Z,98639.19
2023-01-28T22:26:47.133Z,98635.78
2023-01-28T22:29:16.791Z,98633.25
2023-01-28T22:31:46.983Z,98629.00
2023-01-28T22:34:15.959Z,98633.25
2023-01-28T22:36:44.780Z,98640.03
2023-01-28T22:39:16.923Z,98634.94
2023-01-28T22:41:46.677Z,98638.31
2023-01-28T22:44:15.560Z,98645.09
2023-01-28T22:46:44.141Z,98642.56
2023-01-28T22:49:14.817Z,98644.25
2023-01-28T22:51:43.738Z,98646.75
2023-01-28T22:54:14.665Z,98634.91
2023-01-28T22:56:44.519Z,98632.41
2023-01-28T22:59:13.470Z,98628.16
2023-01-28T23:01:42.358Z,98634.06
2023-01-28T23:04:11.015Z,98623.06
2023-01-28T23:06:39.558Z,98628.97
2023-01-28T23:09:08.053Z,98623.91
2023-01-28T23:11:37.081Z,98621.41
2023-01-28T23:14:23.467Z,98623.91
2023-01-28T23:17:09.398Z,98627.28
2023-01-28T23:19:55.345Z,98622.22
2023-01-28T23:22:43.805Z,98626.44
2023-01-28T23:25:12.286Z,98639.94
2023-01-28T23:27:41.015Z,98638.25
2023-01-28T23:30:13.802Z,98631.50
2023-01-28T23:32:46.872Z,98633.19
2023-01-28T23:35:16.726Z,98631.47
2023-01-28T23:37:45.253Z,98644.97
2023-01-28T23:40:14.786Z,98642.47
2023-01-28T23:42:44.650Z,98640.75
2023-01-28T23:45:14.741Z,98632.34
2023-01-28T23:47:43.223Z,98632.34
2023-01-28T23:50:12.424Z,98632.34
2023-01-28T23:52:40.948Z,98623.03
2023-01-28T23:55:09.814Z,98622.22
2023-01-28T23:57:38.247Z,98628.97
